createdAt,value
2019-02-24T00:02:44.421Z,1.40
2019-02-24T00:07:03.419Z,1.10
2019-02-24T00:11:21.910Z,1.10
2019-02-24T00:15:41.684Z,1.00
2019-02-24T00:19:59.839Z,0.93
2019-02-24T00:24:18.378Z,0.90
2019-02-24T00:28:36.760Z,1.13
2019-02-24T00:32:55.164Z,0.97
2019-02-24T00:37:13.346Z,0.93
2019-02-24T00:41:31.816Z,0.80
2019-02-24T00:45:50.056Z,0.87
2019-02-24T00:50:08.946Z,1.00
2019-02-24T00:54:27.134Z,0.80
2019-02-24T00:58:45.690Z,1.00
2019-02-24T01:03:03.720Z,1.00
2019-02-24T01:07:22.422Z,1.00
2019-02-24T01:11:41.065Z,1.00
2019-02-24T01:15:59.067Z,1.10
2019-02-24T01:20:17.672Z,0.90
2019-02-24T01:24:35.973Z,0.90
2019-02-24T01:28:54.154Z,1.10
2019-02-24T01:33:12.424Z,0.90
2019-02-24T01:37:30.560Z,1.00
2019-02-24T01:41:48.701Z,1.00
2019-02-24T01:46:06.876Z,0.87
2019-02-24T01:50:26.960Z,0.83
2019-02-24T01:54:45.078Z,0.87
2019-02-24T01:59:03.661Z,0.90
2019-02-24T02:03:23.393Z,0.90
2019-02-24T02:07:42.388Z,0.90
2019-02-24T02:12:00.414Z,1.10
2019-02-24T02:16:19.126Z,1.10
2019-02-24T02:20:37.357Z,0.97
2019-02-24T02:24:56.153Z,0.90
2019-02-24T02:29:14.437Z,0.80
2019-02-24T02:33:33.103Z,0.80
2019-02-24T02:37:51.645Z,1.10
2019-02-24T02:42:09.847Z,1.00
2019-02-24T02:46:28.328Z,1.00
2019-02-24T02:50:47.168Z,1.07
2019-02-24T02:55:06.189Z,1.00
2019-02-24T02:59:24.350Z,1.10
2019-02-24T03:03:42.965Z,1.20
2019-02-24T03:08:08.185Z,1.10
2019-02-24T03:12:26.512Z,1.00
2019-02-24T03:16:45.182Z,1.10
2019-02-24T03:21:03.298Z,1.00
2019-02-24T03:25:21.440Z,1.07
2019-02-24T03:29:40.378Z,1.17
2019-02-24T03:33:59.536Z,1.10
2019-02-24T03:38:18.234Z,1.00
2019-02-24T03:42:36.282Z,1.10
2019-02-24T03:46:54.730Z,1.20
2019-02-24T03:51:13.520Z,1.00
2019-02-24T03:55:31.794Z,1.50
2019-02-24T03:59:50.404Z,1.30
2019-02-24T04:04:08.516Z,1.07
2019-02-24T04:08:27.145Z,1.03
2019-02-24T04:12:45.804Z,1.10
2019-02-24T04:17:03.829Z,1.10
2019-02-24T04:21:22.801Z,1.10
2019-02-24T04:25:41.110Z,1.20
2019-02-24T04:29:59.373Z,1.17
2019-02-24T04:34:17.871Z,1.10
2019-02-24T04:38:36.534Z,1.30
2019-02-24T04:42:55.149Z,1.17
2019-02-24T04:47:13.261Z,1.10
2019-02-24T04:51:31.524Z,1.13
2019-02-24T04:55:49.766Z,1.00
2019-02-24T05:00:08.704Z,1.00
2019-02-24T05:04:26.864Z,1.10
2019-02-24T05:08:45.245Z,1.10
2019-02-24T05:13:03.779Z,1.20
2019-02-24T05:17:21.959Z,1.00
2019-02-24T05:21:40.985Z,1.20
2019-02-24T05:25:59.249Z,1.23
2019-02-24T05:30:17.345Z,1.20
2019-02-24T05:34:35.516Z,1.37
2019-02-24T05:38:54.960Z,1.43
2019-02-24T05:43:13.147Z,1.00
2019-02-24T05:47:32.306Z,1.73
2019-02-24T05:51:51.882Z,1.60
2019-02-24T05:56:10.394Z,1.10
2019-02-24T06:00:28.618Z,1.40
2019-02-24T06:04:47.669Z,1.10
2019-02-24T06:09:06.214Z,1.20
2019-02-24T06:13:24.805Z,1.10
2019-02-24T06:17:42.906Z,1.20
2019-02-24T06:22:01.097Z,1.20
2019-02-24T06:26:20.220Z,1.17
2019-02-24T06:30:38.322Z,1.10
2019-02-24T06:34:56.947Z,1.10
2019-02-24T06:39:16.543Z,1.00
2019-02-24T06:43:35.371Z,1.20
2019-02-24T06:47:53.426Z,1.10
2019-02-24T06:52:11.602Z,0.97
2019-02-24T06:56:29.776Z,1.13
2019-02-24T07:00:48.358Z,1.20
2019-02-24T07:05:07.420Z,1.10
2019-02-24T07:09:25.610Z,1.27
2019-02-24T07:13:43.870Z,1.20
2019-02-24T07:18:03.155Z,1.20
2019-02-24T07:22:21.291Z,1.30
2019-02-24T07:26:39.625Z,1.27
2019-02-24T07:30:57.797Z,1.17
2019-02-24T07:35:16.014Z,1.10
2019-02-24T07:39:34.275Z,1.20
2019-02-24T07:43:52.263Z,1.73
2019-02-24T07:48:11.814Z,1.40
2019-02-24T07:52:30.437Z,1.07
2019-02-24T07:56:48.905Z,1.20
2019-02-24T08:01:07.439Z,1.30
2019-02-24T08:05:26.804Z,1.27
2019-02-24T08:09:45.938Z,1.37
2019-02-24T08:14:03.996Z,1.20
2019-02-24T08:18:22.145Z,1.20
2019-02-24T08:22:40.395Z,0.90
2019-02-24T08:26:58.749Z,1.07
2019-02-24T08:31:17.711Z,1.10
2019-02-24T08:35:35.975Z,1.00
2019-02-24T08:39:54.316Z,0.90
2019-02-24T08:44:13.424Z,0.90
2019-02-24T08:48:31.522Z,1.10
2019-02-24T08:52:49.874Z,1.00
2019-02-24T08:57:09.065Z,0.93
2019-02-24T09:01:28.139Z,1.17
2019-02-24T09:05:47.761Z,1.00
2019-02-24T09:10:06.657Z,1.27
2019-02-24T09:14:25.485Z,1.13
2019-02-24T09:18:45.000Z,1.07
2019-02-24T09:23:03.783Z,1.20
2019-02-24T09:27:22.986Z,1.07
2019-02-24T09:31:42.348Z,1.00
2019-02-24T09:36:01.685Z,1.17
2019-02-24T09:40:20.028Z,1.20
2019-02-24T09:44:38.995Z,1.13
2019-02-24T09:48:57.581Z,1.43
2019-02-24T09:53:16.423Z,1.70
2019-02-24T09:57:37.151Z,1.37
2019-02-24T10:01:56.195Z,1.00
2019-02-24T10:06:14.448Z,1.50
2019-02-24T10:10:32.947Z,1.20
2019-02-24T10:14:52.074Z,1.37
2019-02-24T10:19:11.100Z,1.30
2019-02-24T10:23:29.382Z,1.60
2019-02-24T10:27:47.693Z,1.60
2019-02-24T10:32:06.284Z,1.00
2019-02-24T10:36:25.018Z,1.13
2019-02-24T10:40:43.433Z,1.33
2019-02-24T10:45:02.059Z,1.20
2019-02-24T10:49:20.631Z,1.47
2019-02-24T10:53:39.063Z,1.47
2019-02-24T10:57:58.489Z,1.67
2019-02-24T11:02:16.688Z,1.50
2019-02-24T11:06:35.300Z,1.60
2019-02-24T11:10:53.949Z,1.20
2019-02-24T11:15:13.154Z,1.73
2019-02-24T11:19:32.400Z,1.70
2019-02-24T11:23:50.523Z,1.57
2019-02-24T11:28:09.087Z,1.27
2019-02-24T11:32:27.609Z,1.40
2019-02-24T11:36:45.985Z,1.40
2019-02-24T11:41:04.279Z,1.40
2019-02-24T11:45:32.452Z,1.13
2019-02-24T11:49:51.001Z,1.40
2019-02-24T11:54:09.201Z,1.20
2019-02-24T11:58:29.016Z,1.07
2019-02-24T12:02:47.412Z,1.30
2019-02-24T12:07:06.198Z,1.10
2019-02-24T12:11:24.426Z,1.47
2019-02-24T12:15:42.747Z,1.20
2019-02-24T12:20:01.150Z,1.20
2019-02-24T12:24:19.275Z,1.10
2019-02-24T12:28:37.918Z,1.17
2019-02-24T12:32:56.575Z,1.10
2019-02-24T12:37:15.315Z,1.20
2019-02-24T12:41:33.494Z,0.87
2019-02-24T12:45:52.116Z,1.03
2019-02-24T12:50:11.057Z,0.90
2019-02-24T12:54:29.602Z,1.00
2019-02-24T12:58:48.452Z,1.10
2019-02-24T13:03:07.253Z,0.90
2019-02-24T13:07:25.474Z,0.90
2019-02-24T13:11:43.735Z,0.97
2019-02-24T13:16:02.442Z,1.00
2019-02-24T13:20:20.886Z,1.10
2019-02-24T13:24:38.958Z,1.00
2019-02-24T13:28:57.328Z,0.73
2019-02-24T13:33:16.717Z,1.10
2019-02-24T13:37:34.848Z,0.97
2019-02-24T13:41:53.358Z,1.00
2019-02-24T13:46:11.721Z,1.13
2019-02-24T13:50:30.651Z,0.97
2019-02-24T13:54:49.221Z,0.90
2019-02-24T13:59:07.726Z,0.90
2019-02-24T14:03:26.527Z,0.90
2019-02-24T14:07:44.828Z,0.80
2019-02-24T14:12:02.915Z,1.00
2019-02-24T14:16:21.255Z,0.93
2019-02-24T14:20:39.389Z,0.90
2019-02-24T14:24:57.615Z,0.93
2019-02-24T14:29:16.324Z,1.10
2019-02-24T14:33:34.539Z,0.80
2019-02-24T14:37:52.701Z,0.77
2019-02-24T14:42:11.691Z,0.90
2019-02-24T14:46:29.940Z,0.70
2019-02-24T14:50:48.439Z,0.90
2019-02-24T14:55:07.058Z,0.83
2019-02-24T14:59:34.339Z,0.90
2019-02-24T15:03:56.890Z,0.80
2019-02-24T15:08:15.826Z,0.80
2019-02-24T15:12:36.236Z,0.77
2019-02-24T15:16:54.360Z,0.70
2019-02-24T15:21:13.097Z,0.90
2019-02-24T15:25:32.356Z,1.13
2019-02-24T15:29:52.509Z,0.90
2019-02-24T15:34:10.997Z,0.90
2019-02-24T15:38:30.029Z,0.80
2019-02-24T15:42:48.675Z,0.90
2019-02-24T15:47:07.029Z,0.80
2019-02-24T15:51:25.254Z,0.90
2019-02-24T15:55:44.059Z,1.00
2019-02-24T16:00:02.826Z,0.90
2019-02-24T16:04:24.478Z,0.90
2019-02-24T16:08:42.936Z,0.93
2019-02-24T16:13:01.133Z,1.03
2019-02-24T16:17:19.742Z,0.90
2019-02-24T16:21:38.351Z,1.00
2019-02-24T16:25:56.934Z,1.10
2019-02-24T16:30:15.506Z,0.80
2019-02-24T16:34:34.008Z,1.10
2019-02-24T16:38:53.191Z,0.90
2019-02-24T16:43:11.363Z,1.07
2019-02-24T16:47:29.739Z,0.90
2019-02-24T16:51:47.962Z,0.90
2019-02-24T16:56:06.168Z,1.20
2019-02-24T17:00:24.784Z,1.07
2019-02-24T17:04:43.014Z,0.83
2019-02-24T17:09:03.258Z,0.90
2019-02-24T17:13:33.928Z,0.90
2019-02-24T17:17:51.879Z,0.80
2019-02-24T17:22:11.055Z,1.00
2019-02-24T17:26:29.655Z,1.00
2019-02-24T17:30:48.130Z,0.80
2019-02-24T17:35:07.156Z,1.00
2019-02-24T17:39:26.429Z,0.97
2019-02-24T17:43:44.745Z,1.00
2019-02-24T17:48:03.810Z,1.10
2019-02-24T17:52:24.234Z,1.00
2019-02-24T17:56:43.097Z,0.90
2019-02-24T18:01:04.128Z,1.00
2019-02-24T18:05:22.768Z,0.90
2019-02-24T18:09:42.014Z,1.00
2019-02-24T18:14:01.635Z,1.00
2019-02-24T18:18:19.936Z,1.00
2019-02-24T18:22:38.178Z,1.20
2019-02-24T18:26:56.397Z,1.00
2019-02-24T18:31:14.484Z,1.03
2019-02-24T18:35:32.959Z,1.00
2019-02-24T18:39:52.824Z,1.20
2019-02-24T18:44:11.271Z,0.80
2019-02-24T18:48:29.442Z,0.90
2019-02-24T18:52:48.646Z,0.93
2019-02-24T18:57:06.899Z,0.90
2019-02-24T19:01:25.167Z,0.80
2019-02-24T19:05:44.787Z,0.90
2019-02-24T19:10:05.036Z,1.00
2019-02-24T19:14:24.219Z,1.00
2019-02-24T19:18:44.785Z,0.87
2019-02-24T19:23:08.065Z,0.97
2019-02-24T19:27:28.343Z,1.10
2019-02-24T19:31:46.619Z,1.07
2019-02-24T19:36:05.441Z,1.10
2019-02-24T19:40:24.443Z,0.90
2019-02-24T19:44:43.639Z,1.10
2019-02-24T19:49:02.820Z,0.77
2019-02-24T19:53:21.285Z,0.80
2019-02-24T19:57:39.478Z,1.00
2019-02-24T20:01:57.618Z,0.80
2019-02-24T20:06:16.254Z,0.80
2019-02-24T20:10:34.789Z,1.00
2019-02-24T20:14:55.453Z,0.97
2019-02-24T20:19:14.158Z,1.00
2019-02-24T20:23:33.063Z,0.90
2019-02-24T20:27:52.676Z,0.90
2019-02-24T20:32:11.797Z,0.90
2019-02-24T20:36:30.377Z,0.77
2019-02-24T20:40:49.961Z,1.00
2019-02-24T20:45:11.514Z,1.00
2019-02-24T20:49:30.017Z,0.90
2019-02-24T20:53:49.555Z,0.90
2019-02-24T20:58:08.012Z,0.90
2019-02-24T21:02:28.211Z,1.00
2019-02-24T21:06:47.255Z,1.10
2019-02-24T21:11:05.326Z,0.83
2019-02-24T21:15:23.930Z,0.90
2019-02-24T21:19:42.782Z,0.90
2019-02-24T21:24:01.440Z,1.00
2019-02-24T21:28:21.120Z,0.80
2019-02-24T21:32:40.305Z,0.80
2019-02-24T21:36:58.809Z,0.90
2019-02-24T21:41:17.543Z,0.80
2019-02-24T21:45:36.491Z,0.83
2019-02-24T21:49:55.766Z,0.80
2019-02-24T21:54:14.445Z,0.73
2019-02-24T21:58:33.213Z,0.80
2019-02-24T22:02:52.574Z,0.80
2019-02-24T22:07:13.303Z,0.90
2019-02-24T22:11:31.554Z,0.80
2019-02-24T22:15:49.729Z,0.80
2019-02-24T22:20:09.213Z,0.90
2019-02-24T22:24:27.380Z,1.20
2019-02-24T22:28:45.666Z,1.40
2019-02-24T22:33:04.174Z,1.20
2019-02-24T22:37:22.371Z,1.00
2019-02-24T22:41:40.541Z,0.90
2019-02-24T22:45:58.801Z,1.20
2019-02-24T22:50:17.544Z,1.00
2019-02-24T22:54:35.739Z,1.30
2019-02-24T22:58:53.895Z,1.00
2019-02-24T23:03:12.201Z,1.20
2019-02-24T23:07:30.377Z,1.43
2019-02-24T23:11:50.206Z,1.17
2019-02-24T23:16:09.994Z,1.50
2019-02-24T23:20:28.194Z,1.10
2019-02-24T23:24:46.496Z,1.20
2019-02-24T23:29:04.751Z,1.33
2019-02-24T23:33:23.118Z,1.07
2019-02-24T23:37:41.573Z,1.43
2019-02-24T23:42:00.085Z,1.97
2019-02-24T23:46:18.279Z,1.77
2019-02-24T23:50:36.789Z,1.77
2019-02-24T23:54:54.976Z,1.60
2019-02-24T23:59:13.102Z,1.80
